Aviation Digital Data Service (ADDS)

Output produced by METARs form (1359 UTC 16 April 2014)
found at http://www.aviationweather.gov/adds/metars/
 
KMIV 161354Z AUTO 33014G21KT 10SM CLR 02/M08 A3035 RMK AO2 SLP276 T00221083
KMIV 161120Z 1612/1712 34010G20KT P6SM SKC 
     FM162300 06008KT P6SM SCT250